TVF08E LFBT-LFMT
Flight info
| Callsign | TVF08E |
|---|---|
| Flight time | 0h 32m |
| Altitude | 18000 |
| Route | USAKU G17 AUCHE T544 TOU/N0381F170 G393 BRUSC |
| Aircraft | B738/M-SDE2E3FGHIRWXY/LB1 |
Departure
| Time | 2026-05-05 17:29 |
|---|---|
| Airport | Tarbes-Lourdes-Pyrénées Airport (LFBT) |
Arrival
| Time | 2026-05-05 18:01 |
|---|---|
| Airport | Montpellier-Méditerranée Airport (LFMT) |
| Time | Latitude | Longitude | Altitude | Speed | Heading |
|---|---|---|---|---|---|
| 2026-05-05 17:17 | 43.18519 | 0.00087 | 1195 ft | 0 kts | 162° |
| 2026-05-05 17:22 | 43.18518 | 0.00088 | 1195 ft | 2 kts | 163° |
| 2026-05-05 17:22 | 43.18492 | 0.00099 | 1195 ft | 6 kts | 160° |
| 2026-05-05 17:23 | 43.18443 | 0.00124 | 1197 ft | 9 kts | 176° |
| 2026-05-05 17:23 | 43.18382 | 0.00090 | 1199 ft | 11 kts | 207° |
| 2026-05-05 17:23 | 43.18313 | 0.00037 | 1201 ft | 12 kts | 209° |
| 2026-05-05 17:23 | 43.18234 | -0.00022 | 1204 ft | 14 kts | 209° |
| 2026-05-05 17:24 | 43.18148 | -0.00088 | 1207 ft | 15 kts | 209° |
| 2026-05-05 17:24 | 43.18052 | -0.00161 | 1210 ft | 16 kts | 209° |
| 2026-05-05 17:24 | 43.17948 | -0.00239 | 1214 ft | 18 kts | 209° |
| 2026-05-05 17:24 | 43.17838 | -0.00325 | 1217 ft | 19 kts | 209° |
| 2026-05-05 17:25 | 43.17719 | -0.00415 | 1220 ft | 20 kts | 209° |
| 2026-05-05 17:25 | 43.17636 | -0.00475 | 1223 ft | 20 kts | 206° |
| 2026-05-05 17:25 | 43.17467 | -0.00569 | 1228 ft | 19 kts | 200° |
| 2026-05-05 17:25 | 43.17342 | -0.00633 | 1233 ft | 19 kts | 200° |
| 2026-05-05 17:26 | 43.17221 | -0.00693 | 1240 ft | 18 kts | 200° |
| 2026-05-05 17:26 | 43.17105 | -0.00751 | 1243 ft | 17 kts | 200° |
| 2026-05-05 17:26 | 43.16993 | -0.00809 | 1252 ft | 17 kts | 202° |
| 2026-05-05 17:26 | 43.16885 | -0.00865 | 1259 ft | 16 kts | 200° |
| 2026-05-05 17:27 | 43.16781 | -0.00916 | 1265 ft | 16 kts | 200° |
| 2026-05-05 17:27 | 43.16685 | -0.00979 | 1264 ft | 15 kts | 214° |
| 2026-05-05 17:27 | 43.16608 | -0.01070 | 1262 ft | 14 kts | 221° |
| 2026-05-05 17:27 | 43.16585 | -0.01193 | 1264 ft | 15 kts | 289° |
| 2026-05-05 17:28 | 43.16682 | -0.01235 | 1261 ft | 20 kts | 20° |
| 2026-05-05 17:28 | 43.16914 | -0.01117 | 1258 ft | 69 kts | 20° |
| 2026-05-05 17:28 | 43.17627 | -0.00758 | 1223 ft | 146 kts | 20° |
| 2026-05-05 17:28 | 43.18791 | -0.00197 | 1272 ft | 204 kts | 18° |
| 2026-05-05 17:29 | 43.20205 | 0.00519 | 1860 ft | 224 kts | 19° |
| 2026-05-05 17:29 | 43.21675 | 0.01296 | 2726 ft | 232 kts | 20° |
| 2026-05-05 17:29 | 43.23151 | 0.02157 | 3730 ft | 226 kts | 19° |
| 2026-05-05 17:29 | 43.24623 | 0.03010 | 4373 ft | 234 kts | 18° |
| 2026-05-05 17:30 | 43.26169 | 0.03828 | 4831 ft | 242 kts | 17° |
| 2026-05-05 17:30 | 43.27785 | 0.04712 | 5148 ft | 261 kts | 19° |
| 2026-05-05 17:30 | 43.29564 | 0.05731 | 5249 ft | 289 kts | 21° |
| 2026-05-05 17:30 | 43.31370 | 0.06886 | 6179 ft | 281 kts | 23° |
| 2026-05-05 17:31 | 43.33111 | 0.08035 | 7091 ft | 278 kts | 23° |
| 2026-05-05 17:31 | 43.34877 | 0.09190 | 7686 ft | 284 kts | 23° |
| 2026-05-05 17:31 | 43.36685 | 0.10357 | 8286 ft | 289 kts | 23° |
| 2026-05-05 17:31 | 43.38520 | 0.11531 | 8962 ft | 292 kts | 23° |
| 2026-05-05 17:32 | 43.40358 | 0.12701 | 9601 ft | 298 kts | 23° |
| 2026-05-05 17:32 | 43.42241 | 0.13897 | 10309 ft | 300 kts | 23° |
| 2026-05-05 17:32 | 43.44196 | 0.15134 | 10585 ft | 320 kts | 23° |
| 2026-05-05 17:32 | 43.46291 | 0.16459 | 10745 ft | 342 kts | 23° |
| 2026-05-05 17:33 | 43.48523 | 0.17872 | 10898 ft | 363 kts | 23° |
| 2026-05-05 17:33 | 43.50878 | 0.19363 | 11101 ft | 381 kts | 23° |
| 2026-05-05 17:33 | 43.53228 | 0.21180 | 11412 ft | 395 kts | 39° |
| 2026-05-05 17:33 | 43.55031 | 0.23983 | 12015 ft | 399 kts | 59° |
| 2026-05-05 17:34 | 43.56231 | 0.27425 | 12713 ft | 400 kts | 67° |
| 2026-05-05 17:34 | 43.57327 | 0.30991 | 13249 ft | 406 kts | 68° |
| 2026-05-05 17:34 | 43.58427 | 0.34596 | 13861 ft | 409 kts | 68° |
| 2026-05-05 17:34 | 43.59553 | 0.38228 | 14423 ft | 413 kts | 67° |
| 2026-05-05 17:35 | 43.60705 | 0.41875 | 14989 ft | 415 kts | 67° |
| 2026-05-05 17:35 | 43.61871 | 0.45542 | 15543 ft | 419 kts | 67° |
| 2026-05-05 17:35 | 43.63045 | 0.49241 | 16071 ft | 422 kts | 68° |
| 2026-05-05 17:35 | 43.64198 | 0.52943 | 16605 ft | 425 kts | 70° |
| 2026-05-05 17:36 | 43.65061 | 0.56854 | 17110 ft | 427 kts | 79° |
| 2026-05-05 17:36 | 43.65443 | 0.60919 | 17613 ft | 428 kts | 89° |
| 2026-05-05 17:36 | 43.65604 | 0.65043 | 17964 ft | 432 kts | 89° |
| 2026-05-05 17:36 | 43.65742 | 0.69248 | 17962 ft | 442 kts | 90° |
| 2026-05-05 17:37 | 43.65884 | 0.73518 | 17958 ft | 445 kts | 89° |
| 2026-05-05 17:37 | 43.66038 | 0.77782 | 17952 ft | 442 kts | 89° |
| 2026-05-05 17:37 | 43.66199 | 0.81956 | 17946 ft | 439 kts | 89° |
| 2026-05-05 17:37 | 43.66366 | 0.86154 | 17959 ft | 438 kts | 89° |
| 2026-05-05 17:38 | 43.66534 | 0.90343 | 17960 ft | 437 kts | 89° |
| 2026-05-05 17:38 | 43.66703 | 0.94552 | 17965 ft | 438 kts | 89° |
| 2026-05-05 17:38 | 43.66871 | 0.98763 | 17971 ft | 439 kts | 89° |
| 2026-05-05 17:38 | 43.67037 | 1.02986 | 17958 ft | 441 kts | 89° |
| 2026-05-05 17:39 | 43.67203 | 1.07226 | 17970 ft | 442 kts | 89° |
| 2026-05-05 17:39 | 43.67366 | 1.11465 | 17972 ft | 443 kts | 89° |
| 2026-05-05 17:39 | 43.67529 | 1.15723 | 17955 ft | 444 kts | 89° |
| 2026-05-05 17:39 | 43.67688 | 1.19926 | 17969 ft | 444 kts | 89° |
| 2026-05-05 17:40 | 43.67849 | 1.24192 | 17966 ft | 444 kts | 89° |
| 2026-05-05 17:40 | 43.68007 | 1.28462 | 17963 ft | 444 kts | 89° |
| 2026-05-05 17:40 | 43.68169 | 1.32716 | 17963 ft | 444 kts | 89° |
| 2026-05-05 17:40 | 43.68365 | 1.36980 | 17966 ft | 443 kts | 88° |
| 2026-05-05 17:41 | 43.68581 | 1.41238 | 17966 ft | 443 kts | 88° |
| 2026-05-05 17:41 | 43.68801 | 1.45483 | 17970 ft | 443 kts | 88° |
| 2026-05-05 17:41 | 43.69015 | 1.49684 | 17965 ft | 443 kts | 88° |
| 2026-05-05 17:41 | 43.69228 | 1.53924 | 17953 ft | 442 kts | 88° |
| 2026-05-05 17:42 | 43.69435 | 1.58154 | 17970 ft | 441 kts | 88° |
| 2026-05-05 17:42 | 43.69638 | 1.62381 | 17976 ft | 441 kts | 89° |
| 2026-05-05 17:42 | 43.69839 | 1.66611 | 17971 ft | 441 kts | 89° |
| 2026-05-05 17:42 | 43.70038 | 1.70840 | 17956 ft | 440 kts | 89° |
| 2026-05-05 17:43 | 43.70232 | 1.75009 | 17957 ft | 440 kts | 89° |
| 2026-05-05 17:43 | 43.70427 | 1.79224 | 17960 ft | 439 kts | 89° |
| 2026-05-05 17:43 | 43.70621 | 1.83445 | 17961 ft | 439 kts | 89° |
| 2026-05-05 17:43 | 43.70813 | 1.87661 | 17958 ft | 439 kts | 89° |
| 2026-05-05 17:44 | 43.71004 | 1.91881 | 17975 ft | 439 kts | 89° |
| 2026-05-05 17:44 | 43.71194 | 1.96099 | 17980 ft | 440 kts | 89° |
| 2026-05-05 17:44 | 43.71382 | 2.00325 | 17981 ft | 440 kts | 89° |
| 2026-05-05 17:44 | 43.71576 | 2.04551 | 17972 ft | 441 kts | 88° |
| 2026-05-05 17:45 | 43.71845 | 2.08778 | 17979 ft | 441 kts | 86° |
| 2026-05-05 17:45 | 43.72164 | 2.13001 | 17974 ft | 442 kts | 86° |
| 2026-05-05 17:45 | 43.72496 | 2.17225 | 17974 ft | 442 kts | 86° |
| 2026-05-05 17:45 | 43.72819 | 2.21356 | 17969 ft | 431 kts | 86° |
| 2026-05-05 17:46 | 43.73131 | 2.25453 | 17983 ft | 426 kts | 86° |
| 2026-05-05 17:46 | 43.73432 | 2.29525 | 17980 ft | 426 kts | 86° |
| 2026-05-05 17:46 | 43.73726 | 2.33600 | 17988 ft | 427 kts | 86° |
| 2026-05-05 17:46 | 43.74018 | 2.37697 | 17587 ft | 428 kts | 86° |
| 2026-05-05 17:47 | 43.74306 | 2.41768 | 17096 ft | 423 kts | 86° |
| 2026-05-05 17:47 | 43.74589 | 2.45798 | 16569 ft | 418 kts | 86° |
| 2026-05-05 17:47 | 43.74864 | 2.49734 | 16022 ft | 414 kts | 86° |
| 2026-05-05 17:47 | 43.75143 | 2.53736 | 15483 ft | 411 kts | 86° |
| 2026-05-05 17:48 | 43.75412 | 2.57609 | 14971 ft | 409 kts | 86° |
| 2026-05-05 17:48 | 43.75682 | 2.61525 | 14410 ft | 408 kts | 86° |
| 2026-05-05 17:48 | 43.75949 | 2.65422 | 13875 ft | 405 kts | 86° |
| 2026-05-05 17:48 | 43.76213 | 2.69294 | 13286 ft | 402 kts | 86° |
| 2026-05-05 17:49 | 43.76475 | 2.73136 | 12724 ft | 399 kts | 86° |
| 2026-05-05 17:49 | 43.76733 | 2.76940 | 12186 ft | 395 kts | 86° |
| 2026-05-05 17:49 | 43.76986 | 2.80713 | 11652 ft | 392 kts | 86° |
| 2026-05-05 17:49 | 43.77229 | 2.84444 | 11206 ft | 386 kts | 88° |
| 2026-05-05 17:50 | 43.77182 | 2.88050 | 11074 ft | 371 kts | 98° |
| 2026-05-05 17:50 | 43.76694 | 2.91480 | 10921 ft | 358 kts | 105° |
| 2026-05-05 17:50 | 43.76100 | 2.94777 | 10758 ft | 347 kts | 105° |
| 2026-05-05 17:50 | 43.75538 | 2.97981 | 10613 ft | 337 kts | 105° |
| 2026-05-05 17:51 | 43.75006 | 3.01086 | 10474 ft | 327 kts | 105° |
| 2026-05-05 17:51 | 43.74486 | 3.04114 | 10332 ft | 318 kts | 105° |
| 2026-05-05 17:51 | 43.73971 | 3.07048 | 10203 ft | 309 kts | 105° |
| 2026-05-05 17:51 | 43.73465 | 3.09898 | 10074 ft | 301 kts | 105° |
| 2026-05-05 17:52 | 43.72977 | 3.12644 | 9959 ft | 292 kts | 105° |
| 2026-05-05 17:52 | 43.72495 | 3.15356 | 9698 ft | 290 kts | 105° |
| 2026-05-05 17:52 | 43.72014 | 3.18059 | 9403 ft | 289 kts | 105° |
| 2026-05-05 17:52 | 43.71536 | 3.20749 | 9108 ft | 287 kts | 105° |
| 2026-05-05 17:53 | 43.71060 | 3.23421 | 8823 ft | 286 kts | 105° |
| 2026-05-05 17:53 | 43.70585 | 3.26085 | 8532 ft | 285 kts | 105° |
| 2026-05-05 17:53 | 43.70113 | 3.28735 | 8237 ft | 284 kts | 105° |
| 2026-05-05 17:53 | 43.69641 | 3.31378 | 7953 ft | 282 kts | 105° |
| 2026-05-05 17:54 | 43.69171 | 3.34010 | 7667 ft | 281 kts | 105° |
| 2026-05-05 17:54 | 43.68707 | 3.36598 | 7395 ft | 281 kts | 106° |
| 2026-05-05 17:54 | 43.68229 | 3.39259 | 7106 ft | 282 kts | 105° |
| 2026-05-05 17:54 | 43.67780 | 3.41757 | 6820 ft | 284 kts | 106° |
| 2026-05-05 17:55 | 43.67311 | 3.44413 | 6538 ft | 284 kts | 105° |
| 2026-05-05 17:55 | 43.66845 | 3.47063 | 6244 ft | 284 kts | 105° |
| 2026-05-05 17:55 | 43.66379 | 3.49711 | 5934 ft | 283 kts | 105° |
| 2026-05-05 17:55 | 43.65923 | 3.52366 | 5632 ft | 283 kts | 102° |
| 2026-05-05 17:56 | 43.65907 | 3.55093 | 5332 ft | 285 kts | 85° |
| 2026-05-05 17:56 | 43.66167 | 3.57796 | 5141 ft | 281 kts | 84° |
| 2026-05-05 17:56 | 43.66425 | 3.60442 | 5042 ft | 275 kts | 84° |
| 2026-05-05 17:56 | 43.66666 | 3.63008 | 4898 ft | 269 kts | 84° |
| 2026-05-05 17:57 | 43.66895 | 3.65534 | 4759 ft | 262 kts | 85° |
| 2026-05-05 17:57 | 43.67118 | 3.68084 | 4243 ft | 273 kts | 85° |
| 2026-05-05 17:57 | 43.67344 | 3.70713 | 3761 ft | 278 kts | 84° |
| 2026-05-05 17:57 | 43.67572 | 3.73379 | 3257 ft | 281 kts | 84° |
| 2026-05-05 17:58 | 43.67705 | 3.76036 | 3021 ft | 271 kts | 99° |
| 2026-05-05 17:58 | 43.67103 | 3.78359 | 3014 ft | 246 kts | 121° |
| 2026-05-05 17:58 | 43.66271 | 3.80309 | 2995 ft | 225 kts | 125° |
| 2026-05-05 17:58 | 43.65439 | 3.82026 | 2904 ft | 208 kts | 128° |
| 2026-05-05 17:59 | 43.64636 | 3.83659 | 2573 ft | 202 kts | 128° |
| 2026-05-05 17:59 | 43.63847 | 3.85194 | 2269 ft | 194 kts | 128° |
| 2026-05-05 17:59 | 43.63092 | 3.86681 | 1929 ft | 184 kts | 128° |
| 2026-05-05 17:59 | 43.62383 | 3.88083 | 1648 ft | 176 kts | 129° |
| 2026-05-05 18:00 | 43.61700 | 3.89440 | 1354 ft | 167 kts | 129° |
| 2026-05-05 18:00 | 43.61027 | 3.90769 | 1129 ft | 175 kts | 129° |
| 2026-05-05 18:00 | 43.60309 | 3.92193 | 843 ft | 180 kts | 128° |
| 2026-05-05 18:00 | 43.59602 | 3.93602 | 516 ft | 175 kts | 130° |
| 2026-05-05 18:01 | 43.58938 | 3.94932 | 238 ft | 168 kts | 129° |
| 2026-05-05 18:01 | 43.58295 | 3.96225 | 28 ft | 155 kts | 130° |
| 2026-05-05 18:01 | 43.57719 | 3.97339 | 16 ft | 123 kts | 124° |
| 2026-05-05 18:01 | 43.57374 | 3.98025 | 14 ft | 45 kts | 125° |
| 2026-05-05 18:02 | 43.57258 | 3.98159 | 15 ft | 16 kts | 170° |
| 2026-05-05 18:02 | 43.57201 | 3.98128 | 15 ft | 0 kts | 225° |
| 2026-05-05 18:04 | 43.57200 | 3.98127 | 14 ft | 1 kts | 225° |
| 2026-05-05 18:04 | 43.57189 | 3.98108 | 14 ft | 5 kts | 235° |
| 2026-05-05 18:04 | 43.57176 | 3.98048 | 13 ft | 8 kts | 268° |
| 2026-05-05 18:04 | 43.57203 | 3.97965 | 14 ft | 11 kts | 305° |
| 2026-05-05 18:05 | 43.57254 | 3.97862 | 13 ft | 15 kts | 304° |
| 2026-05-05 18:05 | 43.57317 | 3.97734 | 13 ft | 17 kts | 304° |
| 2026-05-05 18:05 | 43.57384 | 3.97603 | 15 ft | 17 kts | 306° |
| 2026-05-05 18:05 | 43.57456 | 3.97464 | 18 ft | 18 kts | 304° |
| 2026-05-05 18:06 | 43.57528 | 3.97320 | 17 ft | 19 kts | 304° |
| 2026-05-05 18:06 | 43.57553 | 3.97270 | 17 ft | 20 kts | 305° |
| 2026-05-05 18:06 | 43.57698 | 3.96983 | 12 ft | 24 kts | 305° |
| 2026-05-05 18:06 | 43.57793 | 3.96794 | 11 ft | 23 kts | 304° |
| 2026-05-05 18:07 | 43.57884 | 3.96614 | 11 ft | 22 kts | 305° |
| 2026-05-05 18:07 | 43.57942 | 3.96497 | 13 ft | 22 kts | 304° |
| 2026-05-05 18:07 | 43.58022 | 3.96338 | 14 ft | 16 kts | 305° |
| 2026-05-05 18:07 | 43.57996 | 3.96219 | 15 ft | 16 kts | 216° |
| 2026-05-05 18:08 | 43.57974 | 3.96196 | 15 ft | 0 kts | 220° |
| 2026-05-05 18:08 | 43.57961 | 3.96185 | 14 ft | 6 kts | 212° |
| 2026-05-05 18:08 | 43.57907 | 3.96141 | 16 ft | 11 kts | 211° |
| 2026-05-05 18:09 | 43.57895 | 3.96115 | 14 ft | 1 kts | 269° |
| 2026-05-05 18:09 | 43.57908 | 3.96075 | 14 ft | 4 kts | 294° |
| 2026-05-05 18:09 | 43.57914 | 3.96055 | 15 ft | 1 kts | 294° |
| 2026-05-05 18:09 | 43.57917 | 3.96048 | 14 ft | 0 kts | 294° |